Terminal Aerodrome Forecast
Issued by NWS Northern Indiana

Home | Current Version | Previous Version | Graphics & Text | Print | Product List | Glossary On
Versions: 1 2 3 4 5 6 7 8 9 10 11 12 13
129
FTUS43 KIWX 292325
TAFFWA
TAF
KFWA 292325Z 3000/3024 17008KT P6SM VCSH BKN100
     FM300300 17008KT P6SM SCT030 BKN150
     FM300900 18004KT 5SM BR BKN020
     FM301600 25009KT P6SM SCT035 BKN150
     FM302200 25012KT P6SM BKN035=

USA.gov is the U.S. government's official web portal to all federal, state and local government web resources and services.